Terminal Aerodrome Forecast
Issued by NWS

Home | Current Version | Previous Version | Text Only | Print | Product List | Glossary On
Versions: 1 2 3 4 5 6 7 8 9 10 11 12 13 14 15 16
737
FTUS41 KBGM 201134
TAFITH
TAF
KITH 201134Z 2012/2112 32006KT P6SM SCT025
      TEMPO 2012/2015 BKN025
     FM201500 34010KT P6SM SCT025
     FM202200 34005KT P6SM FEW200=

USA.gov is the U.S. government's official web portal to all federal, state and local government web resources and services.